Time;durP1;ratioP1;P1;durP2;ratioP2;P2;SDS_P1;SDS_P2;PMS_P1;PMS_P2;Temp;Humidity;BMP_temperature;BMP_pressure;BME280_temperature;BME280_humidity;BME280_pressure;Samples;Min_cycle;Max_cycle;Signal;HPM_P1;HPM_P2
2021/05/19 00:00:46;;;;;;;0.40;0.30;;;9.10;99.90;;;;;;5072634;28;20479;-71
2021/05/19 00:03:12;;;;;;;0.40;0.20;;;9.10;99.90;;;;;;5072359;28;20408;-71
2021/05/19 00:05:40;;;;;;;0.40;0.20;;;9.00;99.90;;;;;;5072528;28;20388;-71
2021/05/19 00:08:06;;;;;;;0.40;0.20;;;9.00;99.90;;;;;;5071663;28;20423;-71
2021/05/19 00:10:32;;;;;;;0.40;0.20;;;9.10;99.90;;;;;;5072335;28;20841;-71
2021/05/19 00:12:58;;;;;;;0.60;0.60;;;9.30;99.90;;;;;;5071532;28;20430;-71
2021/05/19 00:15:24;;;;;;;0.40;0.20;;;9.10;99.90;;;;;;5072075;28;20376;-71
2021/05/19 00:17:49;;;;;;;0.40;0.20;;;10.10;99.90;;;;;;5071588;28;20418;-72
2021/05/19 00:20:18;;;;;;;0.40;0.20;;;9.10;99.90;;;;;;5072219;28;20425;-71
2021/05/19 00:22:44;;;;;;;0.40;0.20;;;9.00;99.90;;;;;;5071661;28;20408;-71
2021/05/19 00:25:11;;;;;;;0.40;0.20;;;9.10;99.90;;;;;;5071177;28;20395;-72
2021/05/19 00:27:36;;;;;;;0.40;0.20;;;9.10;99.90;;;;;;5071992;28;20386;-71
2021/05/19 00:30:04;;;;;;;0.40;0.20;;;9.10;99.90;;;;;;5071419;28;20384;-72
2021/05/19 00:32:30;;;;;;;0.40;0.20;;;9.00;99.90;;;;;;5071865;28;20475;-72
2021/05/19 00:34:55;;;;;;;1.30;0.70;;;9.00;99.90;;;;;;5071284;28;20474;-72
2021/05/19 00:37:21;;;;;;;0.40;0.30;;;8.90;99.90;;;;;;5072088;28;20818;-71
2021/05/19 00:39:47;;;;;;;0.40;0.20;;;9.10;99.90;;;;;;5071851;28;20376;-71
2021/05/19 00:42:14;;;;;;;0.40;0.20;;;9.10;99.90;;;;;;5071031;28;20388;-72
2021/05/19 00:44:41;;;;;;;0.40;0.20;;;9.10;99.90;;;;;;5071606;28;20380;-71
2021/05/19 00:47:07;;;;;;;0.40;0.20;;;9.00;99.90;;;;;;5069821;28;20387;-71
2021/05/19 00:49:32;;;;;;;0.90;0.90;;;9.00;99.90;;;;;;5071242;28;20384;-71
2021/05/19 00:51:58;;;;;;;0.40;0.30;;;8.80;99.90;;;;;;5071083;28;20384;-72
2021/05/19 00:54:24;;;;;;;0.40;0.20;;;9.00;99.90;;;;;;5071739;28;20479;-71
2021/05/19 00:56:51;;;;;;;0.40;0.20;;;9.00;99.90;;;;;;5071607;28;20387;-71
2021/05/19 00:59:17;;;;;;;0.40;0.20;;;9.10;99.90;;;;;;5071397;28;20909;-71
2021/05/19 01:01:43;;;;;;;0.40;0.20;;;9.10;99.90;;;;;;5071260;28;20718;-71
2021/05/19 01:04:09;;;;;;;0.40;0.20;;;9.00;99.90;;;;;;5070310;28;20415;-71
2021/05/19 01:11:50;;;;;;;0.40;0.20;;;9.50;99.90;;;;;;5071360;28;20371;-71
2021/05/19 01:14:16;;;;;;;0.40;0.20;;;9.00;99.90;;;;;;5070242;28;20376;-71
2021/05/19 01:16:41;;;;;;;0.40;0.20;;;9.10;99.90;;;;;;5069994;28;20486;-71
2021/05/19 01:19:08;;;;;;;0.40;0.20;;;9.00;99.90;;;;;;5070533;28;20382;-71
2021/05/19 01:21:35;;;;;;;0.40;0.20;;;9.10;99.90;;;;;;5071019;28;20387;-71
2021/05/19 01:24:05;;;;;;;0.40;0.20;;;9.10;99.90;;;;;;5070425;28;20544;-72
2021/05/19 01:26:32;;;;;;;0.40;0.20;;;9.00;99.90;;;;;;5071053;28;20416;-71
2021/05/19 01:28:58;;;;;;;0.40;0.20;;;9.00;99.90;;;;;;5069979;28;20467;-72
2021/05/19 01:31:23;;;;;;;0.40;0.20;;;9.10;99.90;;;;;;5071059;28;20495;-71
2021/05/19 01:33:49;;;;;;;0.40;0.20;;;9.90;99.90;;;;;;5071226;28;20391;-71
2021/05/19 01:36:16;;;;;;;0.40;0.30;;;8.90;99.90;;;;;;5070178;28;20400;-71
2021/05/19 01:38:44;;;;;;;0.40;0.20;;;8.80;99.90;;;;;;5070441;28;20371;-71
2021/05/19 01:41:09;;;;;;;0.40;0.30;;;9.00;99.90;;;;;;5069026;28;20754;-71
2021/05/19 01:43:36;;;;;;;0.70;0.70;;;9.00;99.90;;;;;;5070642;28;20400;-71
2021/05/19 01:46:03;;;;;;;0.40;0.20;;;8.90;99.90;;;;;;5070145;28;20384;-72
2021/05/19 01:48:32;;;;;;;0.40;0.20;;;9.10;99.90;;;;;;5070707;28;20383;-71
2021/05/19 01:50:58;;;;;;;0.40;0.20;;;9.00;99.90;;;;;;5070038;28;20474;-72
2021/05/19 01:53:28;;;;;;;0.40;0.20;;;9.10;99.90;;;;;;5052621;28;20395;-71
2021/05/19 01:55:55;;;;;;;0.50;0.50;;;9.30;99.90;;;;;;5070320;28;20372;-72
2021/05/19 01:58:21;;;;;;;0.40;0.20;;;9.00;99.90;;;;;;5070281;28;20406;-72
2021/05/19 02:00:47;;;;;;;0.50;0.50;;;8.70;99.90;;;;;;5070528;28;20376;-71
2021/05/19 02:03:13;;;;;;;0.40;0.20;;;9.00;99.90;;;;;;5069617;28;20411;-71
2021/05/19 02:05:39;;;;;;;0.40;0.20;;;9.00;99.90;;;;;;5070370;28;20777;-72
2021/05/19 02:08:07;;;;;;;0.40;0.20;;;9.00;99.90;;;;;;5069908;28;20384;-71
2021/05/19 02:10:34;;;;;;;1.30;0.90;;;9.30;99.90;;;;;;5070464;28;20439;-71
2021/05/19 02:13:02;;;;;;;0.40;0.20;;;9.00;99.90;;;;;;5068469;28;20818;-71
2021/05/19 02:15:29;;;;;;;0.40;0.20;;;9.70;99.90;;;;;;5070407;28;20375;-71
2021/05/19 02:17:55;;;;;;;0.40;0.20;;;9.00;99.90;;;;;;5069530;28;20483;-71
2021/05/19 02:20:22;;;;;;;0.40;0.20;;;8.90;99.90;;;;;;5070074;28;20438;-71
2021/05/19 02:22:48;;;;;;;0.40;0.20;;;9.00;99.90;;;;;;5070533;28;20411;-71
2021/05/19 02:25:15;;;;;;;0.40;0.20;;;8.90;99.90;;;;;;5069716;28;20434;-71
2021/05/19 02:27:41;;;;;;;0.40;0.20;;;9.20;99.90;;;;;;5070224;28;20845;-72
2021/05/19 02:30:09;;;;;;;0.40;0.20;;;8.80;99.90;;;;;;5069809;28;20439;-72
2021/05/19 02:32:36;;;;;;;0.40;0.30;;;8.90;99.90;;;;;;5070357;28;20415;-71
2021/05/19 02:35:02;;;;;;;0.40;0.20;;;8.80;99.90;;;;;;5069421;28;20376;-72
2021/05/19 02:37:28;;;;;;;0.40;0.20;;;8.80;99.90;;;;;;5070476;28;20903;-71
2021/05/19 02:39:54;;;;;;;0.40;0.20;;;8.90;99.90;;;;;;5070342;28;20384;-71
2021/05/19 02:42:19;;;;;;;0.40;0.20;;;8.80;99.90;;;;;;5069595;28;20383;-72
2021/05/19 02:44:45;;;;;;;0.40;0.20;;;8.90;99.90;;;;;;5069871;28;20380;-71
2021/05/19 02:47:11;;;;;;;0.40;0.20;;;9.90;99.90;;;;;;5069740;28;20430;-71
2021/05/19 02:49:36;;;;;;;0.40;0.20;;;8.90;99.90;;;;;;5072715;28;20432;-71
2021/05/19 02:52:03;;;;;;;0.40;0.20;;;8.90;99.90;;;;;;5073342;28;20387;-72
2021/05/19 02:54:28;;;;;;;0.40;0.20;;;8.90;99.90;;;;;;5073691;28;20384;-71
2021/05/19 02:56:54;;;;;;;0.40;0.20;;;9.00;99.90;;;;;;5073944;28;20506;-71
2021/05/19 02:59:20;;;;;;;0.40;0.20;;;8.90;99.90;;;;;;5072880;28;20877;-72
2021/05/19 03:01:47;;;;;;;0.40;0.20;;;8.80;99.90;;;;;;5073725;28;20375;-71
2021/05/19 03:04:13;;;;;;;0.40;0.40;;;8.80;99.90;;;;;;5072933;28;20950;-72
2021/05/19 03:06:39;;;;;;;0.40;0.20;;;9.20;99.90;;;;;;5073627;28;20383;-71
2021/05/19 03:09:05;;;;;;;0.40;0.20;;;8.80;99.90;;;;;;5072982;28;20759;-71
2021/05/19 03:11:32;;;;;;;0.40;0.20;;;8.70;99.90;;;;;;5073313;28;20380;-71
2021/05/19 03:13:58;;;;;;;0.40;0.20;;;8.70;99.90;;;;;;5073449;28;20416;-71
2021/05/19 03:16:26;;;;;;;0.40;0.20;;;8.80;99.90;;;;;;5073289;28;20415;-71
2021/05/19 03:18:52;;;;;;;0.40;0.20;;;8.80;99.90;;;;;;5073288;28;20376;-71
2021/05/19 03:21:17;;;;;;;0.40;0.30;;;8.80;99.90;;;;;;5072743;28;20471;-71
2021/05/19 03:23:43;;;;;;;0.40;0.20;;;8.80;99.90;;;;;;5073227;28;20399;-71
2021/05/19 03:26:09;;;;;;;0.40;0.20;;;8.90;99.90;;;;;;5072663;28;20384;-72
2021/05/19 03:28:35;;;;;;;0.40;0.20;;;8.80;99.90;;;;;;5073308;28;20388;-71
2021/05/19 03:31:01;;;;;;;0.40;0.20;;;8.90;99.90;;;;;;5072257;28;20425;-72
2021/05/19 03:33:26;;;;;;;0.40;0.20;;;8.90;99.90;;;;;;5063091;28;20407;-72
2021/05/19 03:35:52;;;;;;;0.40;0.20;;;8.70;99.90;;;;;;5061816;28;20415;-72
2021/05/19 03:38:18;;;;;;;0.40;0.20;;;8.80;99.90;;;;;;5059275;28;20416;-71
2021/05/19 03:40:44;;;;;;;0.40;0.30;;;8.90;99.90;;;;;;5058758;28;20896;-72
2021/05/19 03:43:10;;;;;;;0.40;0.20;;;8.90;99.90;;;;;;5058943;28;20498;-72
2021/05/19 03:45:36;;;;;;;0.40;0.20;;;8.60;99.90;;;;;;5059844;28;20392;-72
2021/05/19 03:48:02;;;;;;;0.40;0.20;;;8.70;99.90;;;;;;5059141;28;20449;-72
2021/05/19 03:50:29;;;;;;;0.40;0.30;;;8.70;99.90;;;;;;5058146;28;20428;-72
2021/05/19 03:52:57;;;;;;;0.40;0.30;;;9.70;99.90;;;;;;5059435;28;20404;-72
2021/05/19 03:55:23;;;;;;;0.40;0.20;;;8.80;99.90;;;;;;5058576;28;20539;-72
2021/05/19 03:57:49;;;;;;;3.00;0.70;;;8.80;99.90;;;;;;5059217;28;20504;-72
2021/05/19 04:00:19;;;;;;;0.40;0.20;;;8.70;99.90;;;;;;5055101;28;20549;-72
2021/05/19 04:02:49;;;;;;;0.40;0.20;;;8.80;99.90;;;;;;5059595;28;20946;-72
2021/05/19 04:05:19;;;;;;;0.40;0.20;;;8.80;99.90;;;;;;5059203;28;21030;-72
2021/05/19 04:07:47;;;;;;;0.40;0.40;;;8.80;99.90;;;;;;5059803;28;20734;-71
2021/05/19 04:10:13;;;;;;;0.40;0.30;;;8.90;99.90;;;;;;5057899;28;20412;-72
2021/05/19 04:12:39;;;;;;;0.40;0.20;;;8.60;99.90;;;;;;5059432;28;20573;-72
2021/05/19 04:15:06;;;;;;;0.40;0.20;;;8.90;99.90;;;;;;5058878;28;21087;-71
2021/05/19 04:17:32;;;;;;;0.40;0.20;;;8.90;99.90;;;;;;5057973;28;20387;-72
2021/05/19 04:19:57;;;;;;;0.40;0.20;;;9.10;99.90;;;;;;5059835;28;20387;-72
2021/05/19 04:22:23;;;;;;;0.40;0.20;;;8.90;99.90;;;;;;5057807;28;20906;-71
2021/05/19 04:24:49;;;;;;;0.40;0.20;;;8.90;99.90;;;;;;5059576;28;20395;-72
2021/05/19 04:27:14;;;;;;;0.60;0.60;;;8.90;99.90;;;;;;5059024;28;20384;-72
2021/05/19 04:29:40;;;;;;;0.40;0.20;;;8.90;99.90;;;;;;5058585;28;20414;-72
2021/05/19 04:32:06;;;;;;;0.40;0.20;;;8.80;99.90;;;;;;5057221;28;20437;-72
2021/05/19 04:34:36;;;;;;;0.40;0.20;;;8.90;99.90;;;;;;5058693;28;20755;-72
2021/05/19 04:37:02;;;;;;;0.40;0.20;;;8.90;99.90;;;;;;5057624;28;20781;-72
2021/05/19 04:39:28;;;;;;;0.40;0.20;;;9.00;99.90;;;;;;5059354;28;20397;-72
2021/05/19 04:41:53;;;;;;;0.40;0.20;;;9.00;99.90;;;;;;5057664;28;20481;-72
2021/05/19 04:44:19;;;;;;;0.40;0.20;;;9.30;99.90;;;;;;5057157;28;20447;-72
2021/05/19 04:46:44;;;;;;;0.40;0.20;;;9.00;99.90;;;;;;5057762;28;20404;-72
2021/05/19 04:49:10;;;;;;;0.40;0.20;;;9.00;99.90;;;;;;5058204;28;20737;-72
2021/05/19 04:51:36;;;;;;;0.40;0.20;;;8.90;99.90;;;;;;5062928;28;20886;-72
2021/05/19 04:54:01;;;;;;;0.40;0.20;;;9.00;99.90;;;;;;5071598;28;20422;-72
2021/05/19 04:56:27;;;;;;;0.40;0.20;;;9.00;99.90;;;;;;5071024;28;20407;-72
2021/05/19 04:58:53;;;;;;;0.40;0.22;;;9.00;99.90;;;;;;5070943;28;20395;-72
2021/05/19 05:01:18;;;;;;;0.40;0.20;;;9.00;99.90;;;;;;5065571;28;20475;-71
2021/05/19 05:03:45;;;;;;;0.40;0.30;;;8.60;99.90;;;;;;5066068;28;20461;-72
2021/05/19 05:06:10;;;;;;;0.40;0.30;;;9.10;99.90;;;;;;5057674;28;20460;-71
2021/05/19 05:08:36;;;;;;;0.40;0.30;;;9.20;99.90;;;;;;5055574;28;20847;-72
2021/05/19 05:11:02;;;;;;;0.40;0.20;;;9.10;99.90;;;;;;5058740;28;20445;-72
2021/05/19 05:13:27;;;;;;;0.40;0.20;;;9.10;99.90;;;;;;5070906;28;20383;-72
2021/05/19 05:15:53;;;;;;;0.40;0.20;;;9.10;99.90;;;;;;5071292;28;20379;-72
2021/05/19 05:18:19;;;;;;;0.40;0.20;;;9.20;99.90;;;;;;5068548;28;20479;-72
2021/05/19 05:20:45;;;;;;;0.40;0.23;;;9.40;99.90;;;;;;5068949;28;20729;-72
2021/05/19 05:23:10;;;;;;;0.60;0.60;;;8.90;99.90;;;;;;5069474;28;20560;-72
2021/05/19 05:25:36;;;;;;;0.40;0.20;;;9.00;99.90;;;;;;5070595;28;20403;-72
2021/05/19 05:28:02;;;;;;;0.40;0.20;;;9.30;99.90;;;;;;5070840;28;20375;-72
2021/05/19 05:30:27;;;;;;;0.40;0.20;;;9.10;99.90;;;;;;5069991;28;20380;-71
2021/05/19 05:32:53;;;;;;;0.40;0.20;;;9.20;99.90;;;;;;5070596;28;20833;-72
2021/05/19 05:35:19;;;;;;;0.40;0.20;;;10.30;99.90;;;;;;5069403;28;20450;-71
2021/05/19 05:37:44;;;;;;;0.40;0.20;;;9.30;99.90;;;;;;5070781;28;20466;-72
2021/05/19 05:40:11;;;;;;;0.40;0.40;;;9.40;99.90;;;;;;5070247;28;20865;-71
2021/05/19 05:42:36;;;;;;;2.20;0.90;;;9.60;99.90;;;;;;5070693;28;20406;-71
2021/05/19 05:45:04;;;;;;;0.40;0.20;;;9.60;99.90;;;;;;5070546;28;20459;-71
2021/05/19 05:47:29;;;;;;;0.40;0.20;;;9.60;99.90;;;;;;5069328;28;20474;-71
2021/05/19 05:49:58;;;;;;;0.40;0.30;;;9.90;99.90;;;;;;5069874;28;20478;-71
2021/05/19 05:52:24;;;;;;;0.40;0.20;;;9.70;99.90;;;;;;5070101;28;20395;-72
2021/05/19 05:54:49;;;;;;;0.40;0.20;;;9.70;99.90;;;;;;5070715;28;20392;-71
2021/05/19 05:57:15;;;;;;;0.40;0.25;;;9.60;99.90;;;;;;5070082;28;20390;-71
2021/05/19 05:59:41;;;;;;;0.40;0.20;;;9.50;99.90;;;;;;5070599;28;20384;-71
2021/05/19 06:02:07;;;;;;;0.40;0.20;;;9.60;99.90;;;;;;5070208;28;20384;-72
2021/05/19 06:04:33;;;;;;;0.40;0.30;;;9.60;99.90;;;;;;5069751;28;20483;-71
2021/05/19 06:06:59;;;;;;;0.40;0.20;;;9.60;99.90;;;;;;5070607;28;20941;-71
2021/05/19 06:09:24;;;;;;;0.40;0.20;;;9.50;99.90;;;;;;5069462;28;20383;-71
2021/05/19 06:11:50;;;;;;;0.40;0.20;;;9.60;99.90;;;;;;5070343;28;20415;-71
2021/05/19 06:14:18;;;;;;;0.40;0.20;;;9.60;99.90;;;;;;5069885;28;20411;-73
2021/05/19 06:16:45;;;;;;;0.40;0.20;;;9.80;99.90;;;;;;5070344;28;20376;-73
2021/05/19 06:19:10;;;;;;;2.10;0.70;;;9.80;99.90;;;;;;5069496;28;20388;-73
2021/05/19 06:21:36;;;;;;;0.60;0.60;;;9.80;99.90;;;;;;5070271;28;20406;-70
2021/05/19 06:24:02;;;;;;;0.40;0.30;;;9.80;99.90;;;;;;5072245;28;20467;-73
2021/05/19 06:26:28;;;;;;;0.40;0.20;;;9.80;99.90;;;;;;5072547;28;20531;-73
2021/05/19 06:28:53;;;;;;;0.40;0.20;;;10.40;99.90;;;;;;5073322;28;20917;-73
2021/05/19 06:31:19;;;;;;;0.40;0.20;;;9.90;99.90;;;;;;5072729;28;20877;-73
2021/05/19 06:33:44;;;;;;;0.40;0.20;;;10.00;99.90;;;;;;5074222;28;20754;-73
2021/05/19 06:36:10;;;;;;;0.40;0.20;;;10.10;99.90;;;;;;5073230;28;20742;-73
2021/05/19 06:38:36;;;;;;;0.40;0.20;;;10.10;99.90;;;;;;5073781;28;20376;-73
2021/05/19 06:41:01;;;;;;;0.40;0.20;;;10.20;99.90;;;;;;5073903;28;20380;-73
2021/05/19 06:43:27;;;;;;;0.40;0.20;;;10.20;99.90;;;;;;5073302;28;21203;-73
2021/05/19 06:45:53;;;;;;;0.40;0.20;;;10.30;99.90;;;;;;5073681;28;20391;-71
2021/05/19 06:48:18;;;;;;;0.40;0.30;;;10.30;99.90;;;;;;5073489;28;20899;-73
2021/05/19 06:50:45;;;;;;;0.40;0.20;;;10.30;99.90;;;;;;5073912;28;20460;-73
2021/05/19 06:53:12;;;;;;;0.40;0.20;;;10.30;99.90;;;;;;5073641;28;20438;-73
2021/05/19 06:55:39;;;;;;;0.40;0.20;;;10.50;99.90;;;;;;5074119;28;20388;-73
2021/05/19 06:58:05;;;;;;;0.40;0.20;;;10.70;99.90;;;;;;5074292;28;20407;-72
2021/05/19 07:00:30;;;;;;;0.40;0.30;;;10.80;99.90;;;;;;5073369;28;20509;-71
2021/05/19 07:02:56;;;;;;;0.40;0.23;;;11.00;99.90;;;;;;5073649;28;20738;-73
2021/05/19 07:05:22;;;;;;;0.40;0.30;;;10.90;99.90;;;;;;5073461;28;20376;-71
2021/05/19 07:07:47;;;;;;;0.40;0.20;;;10.90;99.90;;;;;;5073904;28;20384;-71
2021/05/19 07:10:14;;;;;;;0.40;0.20;;;11.20;99.90;;;;;;5073378;28;20380;-74
2021/05/19 07:12:40;;;;;;;0.40;0.20;;;11.10;99.90;;;;;;5073507;28;20857;-71
2021/05/19 07:15:12;;;;;;;0.40;0.30;;;11.20;99.90;;;;;;5073902;28;20924;-71
2021/05/19 07:17:39;;;;;;;0.40;0.20;;;11.30;99.90;;;;;;5074036;28;20390;-71
2021/05/19 07:20:06;;;;;;;0.40;0.20;;;11.30;99.90;;;;;;5073836;28;20864;-71
2021/05/19 07:22:32;;;;;;;0.40;0.20;;;11.50;99.90;;;;;;5072999;28;20395;-71
2021/05/19 07:24:58;;;;;;;0.40;0.20;;;11.50;99.90;;;;;;5073721;28;20388;-71
2021/05/19 07:27:24;;;;;;;0.40;0.30;;;11.50;99.90;;;;;;5072922;28;20388;-71
2021/05/19 07:29:49;;;;;;;0.40;0.30;;;11.60;99.90;;;;;;5072514;28;20725;-71
2021/05/19 07:32:15;;;;;;;0.40;0.20;;;11.40;99.90;;;;;;5072879;28;20984;-72
2021/05/19 07:34:41;;;;;;;0.40;0.30;;;11.30;99.90;;;;;;5072285;28;20502;-71
2021/05/19 07:37:06;;;;;;;0.40;0.30;;;11.20;99.90;;;;;;5073297;28;20400;-71
2021/05/19 07:39:32;;;;;;;0.40;0.20;;;11.10;99.90;;;;;;5072882;28;20380;-71
2021/05/19 07:41:58;;;;;;;0.40;0.20;;;11.10;99.90;;;;;;5073458;28;20380;-71
2021/05/19 07:44:23;;;;;;;0.40;0.20;;;11.10;99.90;;;;;;5071393;28;20402;-71
2021/05/19 07:46:49;;;;;;;0.40;0.20;;;11.10;99.90;;;;;;5073115;28;20866;-71
2021/05/19 07:49:15;;;;;;;0.40;0.20;;;11.20;99.90;;;;;;5073061;28;20814;-72
2021/05/19 07:51:42;;;;;;;0.40;0.20;;;11.30;99.90;;;;;;5072950;28;20388;-71
2021/05/19 07:54:10;;;;;;;0.45;0.35;;;11.30;99.90;;;;;;5073131;28;20392;-71
2021/05/19 07:56:42;;;;;;;0.40;0.20;;;11.40;99.90;;;;;;5072512;28;20395;-71
2021/05/19 07:59:13;;;;;;;0.40;0.30;;;11.40;99.90;;;;;;5073295;28;20391;-73
2021/05/19 08:04:08;;;;;;;0.40;0.20;;;11.70;99.90;;;;;;5073078;28;20412;-71
2021/05/19 08:06:35;;;;;;;0.40;0.20;;;11.70;99.90;;;;;;5072248;28;20380;-71
2021/05/19 08:09:01;;;;;;;0.40;0.20;;;12.10;99.90;;;;;;5071754;28;20750;-71
2021/05/19 08:11:27;;;;;;;0.40;0.20;;;12.20;99.90;;;;;;5072075;28;20379;-71
2021/05/19 08:13:52;;;;;;;0.40;0.40;;;12.50;99.90;;;;;;5072707;28;20843;-71
2021/05/19 08:16:18;;;;;;;0.40;0.20;;;12.20;99.90;;;;;;5072157;28;20813;-72
2021/05/19 08:18:44;;;;;;;0.40;0.20;;;12.30;99.90;;;;;;5072585;28;20376;-72
2021/05/19 08:21:10;;;;;;;0.40;0.20;;;12.10;99.90;;;;;;5072524;28;20387;-71
2021/05/19 08:23:36;;;;;;;0.40;0.20;;;12.20;99.90;;;;;;5071531;28;20852;-75
2021/05/19 08:26:06;;;;;;;0.40;0.30;;;12.30;99.90;;;;;;5072568;28;20384;-72
2021/05/19 08:28:33;;;;;;;0.40;0.30;;;12.40;99.90;;;;;;5071747;28;20383;-73
2021/05/19 08:30:59;;;;;;;0.40;0.20;;;12.40;99.90;;;;;;5072538;28;20429;-72
2021/05/19 08:33:25;;;;;;;0.40;0.20;;;12.70;99.90;;;;;;5071378;28;20387;-73
2021/05/19 08:35:51;;;;;;;0.40;0.20;;;12.80;99.90;;;;;;5071839;28;20479;-73
2021/05/19 08:38:16;;;;;;;0.40;0.20;;;12.40;99.90;;;;;;5071396;28;20463;-73
2021/05/19 08:40:42;;;;;;;0.40;0.20;;;12.40;99.90;;;;;;5072309;28;20860;-73
2021/05/19 08:43:11;;;;;;;0.40;0.30;;;12.40;99.90;;;;;;5072368;28;20457;-72
2021/05/19 08:45:38;;;;;;;0.40;0.20;;;12.50;99.90;;;;;;5070059;28;20398;-73
2021/05/19 08:48:04;;;;;;;0.40;0.20;;;12.40;99.90;;;;;;5071654;28;20466;-72
2021/05/19 08:50:32;;;;;;;0.40;0.30;;;12.50;99.90;;;;;;5070331;28;20798;-72
2021/05/19 08:52:59;;;;;;;0.40;0.30;;;12.80;99.90;;;;;;5072241;28;20442;-72
2021/05/19 08:55:25;;;;;;;0.40;0.20;;;13.00;99.90;;;;;;5071489;28;20407;-73
2021/05/19 08:57:51;;;;;;;0.40;0.20;;;12.60;99.90;;;;;;5070536;28;20388;-72
2021/05/19 09:00:18;;;;;;;0.40;0.20;;;12.80;99.90;;;;;;5071269;28;20385;-73
2021/05/19 09:03:16;;;;;;;0.40;0.28;;;12.80;99.90;;;;;;5071982;28;20415;-73
2021/05/19 09:05:44;;;;;;;0.40;0.20;;;12.90;99.90;;;;;;5071784;28;20384;-72
2021/05/19 09:08:17;;;;;;;0.40;0.20;;;13.10;99.90;;;;;;5071671;28;20388;-71
2021/05/19 09:10:58;;;;;;;0.40;0.20;;;12.80;99.90;;;;;;5071727;28;20402;-72
2021/05/19 09:13:37;;;;;;;0.40;0.20;;;12.70;99.90;;;;;;5071041;28;20781;-72
2021/05/19 09:16:04;;;;;;;0.40;0.20;;;12.70;99.90;;;;;;5071798;28;20383;-71
2021/05/19 09:18:51;;;;;;;0.40;0.20;;;12.60;99.90;;;;;;5069744;28;20474;-72
2021/05/19 09:21:49;;;;;;;0.40;0.30;;;12.80;99.90;;;;;;5070693;28;20947;-73
2021/05/19 09:24:32;;;;;;;0.40;0.20;;;12.90;99.90;;;;;;5026872;28;20459;-73
2021/05/19 09:27:00;;;;;;;0.40;0.20;;;12.90;99.90;;;;;;5071715;28;20857;-72
2021/05/19 09:29:30;;;;;;;0.40;0.20;;;13.30;99.90;;;;;;5070797;28;20387;-73
2021/05/19 09:32:01;;;;;;;0.40;0.20;;;13.40;99.90;;;;;;5071250;28;20376;-73
2021/05/19 09:34:37;;;;;;;0.40;0.30;;;13.40;99.90;;;;;;5070700;28;20387;-72
2021/05/19 09:37:19;;;;;;;0.40;0.20;;;13.60;99.90;;;;;;5071541;28;20878;-72
2021/05/19 09:40:03;;;;;;;0.40;0.20;;;13.80;94.80;;;;;;5071712;28;20422;-72
2021/05/19 09:42:35;;;;;;;0.40;0.20;;;13.80;95.40;;;;;;5070561;28;20858;-73
2021/05/19 09:45:25;;;;;;;0.40;0.30;;;14.10;95.00;;;;;;5071243;28;20383;-73
2021/05/19 09:47:53;;;;;;;0.40;0.25;;;13.80;94.40;;;;;;5070161;28;20494;-73
2021/05/19 09:50:22;;;;;;;0.40;0.30;;;13.60;96.00;;;;;;5070468;28;20858;-74
2021/05/19 09:53:06;;;;;;;0.40;0.20;;;13.70;97.80;;;;;;5071427;28;20388;-72
2021/05/19 09:55:33;;;;;;;0.40;0.20;;;14.00;95.90;;;;;;5070469;28;20887;-72
2021/05/19 09:57:59;;;;;;;0.40;0.30;;;13.90;93.50;;;;;;5070349;28;20383;-72
2021/05/19 10:00:27;;;;;;;0.40;0.20;;;13.90;94.80;;;;;;5068286;28;20383;-72
2021/05/19 10:02:53;;;;;;;0.40;0.20;;;14.10;94.40;;;;;;5063137;28;20405;-72
2021/05/19 10:05:46;;;;;;;0.40;0.20;;;14.00;94.20;;;;;;5065998;28;20476;-75
2021/05/19 10:08:13;;;;;;;0.40;0.30;;;13.90;93.90;;;;;;5066326;28;20490;-73
2021/05/19 10:10:39;;;;;;;0.40;0.20;;;14.50;93.30;;;;;;5063114;28;20387;-71
2021/05/19 10:13:07;;;;;;;0.40;0.20;;;14.50;93.50;;;;;;5067033;28;20402;-72
2021/05/19 10:15:36;;;;;;;0.40;0.30;;;14.30;93.20;;;;;;5061564;28;20457;-73
2021/05/19 10:18:09;;;;;;;0.40;0.20;;;14.50;92.90;;;;;;5064807;28;20394;-71
2021/05/19 10:20:39;;;;;;;0.40;0.20;;;14.50;88.10;;;;;;5068333;28;20420;-71
2021/05/19 10:23:06;;;;;;;0.40;0.30;;;14.60;91.50;;;;;;5064859;28;20824;-72
2021/05/19 10:25:40;;;;;;;0.40;0.30;;;14.60;90.10;;;;;;5065000;28;20415;-70
2021/05/19 10:28:15;;;;;;;0.40;0.20;;;14.90;90.60;;;;;;5069771;28;20380;-72
2021/05/19 10:30:43;;;;;;;0.40;0.20;;;15.40;88.90;;;;;;5063614;28;20461;-72
2021/05/19 10:33:30;;;;;;;0.40;0.30;;;15.10;85.30;;;;;;5066700;28;20449;-71
2021/05/19 10:35:57;;;;;;;0.40;0.20;;;14.90;87.30;;;;;;5064613;28;20409;-72
2021/05/19 10:38:35;;;;;;;0.70;0.70;;;15.00;90.60;;;;;;5066808;28;20380;-72
2021/05/19 10:41:05;;;;;;;0.40;0.30;;;15.40;89.50;;;;;;5077313;28;20384;-72
2021/05/19 10:43:54;;;;;;;0.40;0.30;;;15.10;85.10;;;;;;5078793;28;20445;-71
2021/05/19 10:46:44;;;;;;;0.40;0.20;;;15.70;89.40;;;;;;5076056;28;20777;-72
2021/05/19 10:49:10;;;;;;;0.40;0.30;;;15.70;83.10;;;;;;5079670;28;20413;-72
2021/05/19 10:51:57;;;;;;;0.40;0.30;;;15.70;83.50;;;;;;5062916;28;20429;-72
2021/05/19 10:57:33;;;;;;;0.40;0.20;;;15.70;81.50;;;;;;5061312;28;20909;-71
2021/05/19 11:00:21;;;;;;;0.40;0.40;;;15.90;80.50;;;;;;5053610;28;20749;-72
2021/05/19 11:03:10;;;;;;;0.40;0.30;;;15.80;82.70;;;;;;5066304;28;20411;-72
2021/05/19 11:05:38;;;;;;;0.40;0.20;;;16.10;79.10;;;;;;5061111;28;20399;-71
2021/05/19 11:08:07;;;;;;;0.40;0.30;;;16.20;80.40;;;;;;5056899;28;20402;-71
2021/05/19 11:10:36;;;;;;;0.40;0.20;;;16.40;80.70;;;;;;5061543;28;20887;-72
2021/05/19 11:13:02;;;;;;;0.40;0.20;;;16.50;76.20;;;;;;5067032;28;20390;-72
2021/05/19 11:21:20;;;;;;;0.40;0.30;;;16.10;72.10;;;;;;5074226;28;20487;-72
2021/05/19 11:24:06;;;;;;;0.40;0.27;;;16.20;76.30;;;;;;5072830;28;20414;-71
2021/05/19 11:26:45;;;;;;;0.40;0.30;;;16.20;80.60;;;;;;5072995;28;20444;-71
2021/05/19 11:29:13;;;;;;;0.40;0.20;;;16.10;77.80;;;;;;5073381;28;20479;-72
2021/05/19 11:31:45;;;;;;;0.40;0.30;;;15.90;78.40;;;;;;5072907;28;20529;-71
2021/05/19 11:34:15;;;;;;;0.40;0.30;;;16.30;78.60;;;;;;5073423;28;20376;-71
2021/05/19 11:36:55;;;;;;;0.40;0.30;;;16.20;78.50;;;;;;5072705;28;20841;-71
2021/05/19 11:39:39;;;;;;;0.40;0.30;;;16.00;79.50;;;;;;5071961;28;20388;-72
2021/05/19 11:42:19;;;;;;;0.40;0.20;;;16.80;80.00;;;;;;5073075;28;20502;-71
2021/05/19 11:44:54;;;;;;;0.40;0.20;;;18.00;74.60;;;;;;5071576;28;20673;-71
2021/05/19 11:47:38;;;;;;;0.40;0.20;;;18.50;69.10;;;;;;5072733;28;20487;-73
2021/05/19 11:50:35;;;;;;;0.40;0.30;;;18.90;66.70;;;;;;5072266;28;20387;-73
2021/05/19 11:53:05;;;;;;;0.40;0.20;;;18.80;65.00;;;;;;5071378;28;20976;-75
2021/05/19 11:55:51;;;;;;;0.40;0.20;;;18.50;63.40;;;;;;5071691;28;20380;-75
2021/05/19 11:58:18;;;;;;;0.50;0.50;;;18.00;61.10;;;;;;5073113;28;20376;-74
2021/05/19 12:00:55;;;;;;;0.40;0.30;;;17.90;63.60;;;;;;5071800;28;20394;-73
2021/05/19 12:03:23;;;;;;;0.40;0.20;;;17.30;65.70;;;;;;5072316;28;20907;-74
2021/05/19 12:06:04;;;;;;;0.40;0.20;;;16.90;69.80;;;;;;5070755;28;20487;-76
2021/05/19 12:08:38;;;;;;;0.40;0.28;;;16.60;72.10;;;;;;5071652;28;20796;-75
2021/05/19 12:11:09;;;;;;;0.40;0.30;;;16.00;74.20;;;;;;5070397;28;20421;-74
2021/05/19 12:13:37;;;;;;;0.40;0.20;;;14.90;78.10;;;;;;5066985;28;20388;-77
2021/05/19 12:16:10;;;;;;;0.40;0.30;;;14.50;81.20;;;;;;5070296;28;20380;-74
2021/05/19 12:18:36;;;;;;;0.40;0.30;;;14.50;83.20;;;;;;5051792;28;20504;-74
2021/05/19 12:21:11;;;;;;;0.40;0.20;;;14.80;82.00;;;;;;5057093;28;20472;-78
2021/05/19 12:23:38;;;;;;;0.40;0.30;;;14.70;80.00;;;;;;5071237;28;20408;-74
2021/05/19 12:26:08;;;;;;;0.40;0.20;;;15.10;80.20;;;;;;5072120;28;20438;-73
2021/05/19 12:28:34;;;;;;;0.40;0.20;;;15.20;79.60;;;;;;5071301;28;20405;-74
2021/05/19 12:31:00;;;;;;;0.40;0.20;;;14.70;80.10;;;;;;5068515;28;20498;-74
2021/05/19 12:33:44;;;;;;;0.40;0.20;;;14.50;82.80;;;;;;5062310;28;20400;-77
2021/05/19 12:36:22;;;;;;;0.40;0.20;;;14.40;85.70;;;;;;5064802;28;20901;-74
2021/05/19 12:38:49;;;;;;;0.40;0.20;;;14.10;87.90;;;;;;5058898;28;20389;-75
2021/05/19 12:41:43;;;;;;;0.40;0.30;;;13.60;90.60;;;;;;5051706;28;20431;-74
2021/05/19 12:44:11;;;;;;;0.40;0.20;;;13.60;91.20;;;;;;5051672;28;20410;-73
2021/05/19 12:46:37;;;;;;;0.40;0.30;;;13.80;91.50;;;;;;5061512;28;20420;-74
2021/05/19 12:49:12;;;;;;;0.40;0.30;;;13.90;91.80;;;;;;5056460;28;20899;-75
2021/05/19 12:51:55;;;;;;;0.40;0.20;;;13.20;92.40;;;;;;5051787;28;20385;-73
2021/05/19 12:54:26;;;;;;;0.40;0.30;;;13.30;93.10;;;;;;5053087;28;20406;-74
2021/05/19 12:57:03;;;;;;;0.40;0.30;;;13.20;93.60;;;;;;5064927;28;20738;-74
2021/05/19 12:59:59;;;;;;;0.40;0.30;;;13.30;96.30;;;;;;5065213;28;20433;-73
2021/05/19 13:02:30;;;;;;;0.40;0.30;;;12.80;99.90;;;;;;5064787;28;20613;-74
2021/05/19 13:04:58;;;;;;;0.40;0.30;;;12.80;99.90;;;;;;5064057;28;20427;-76
2021/05/19 13:07:26;;;;;;;0.40;0.20;;;13.00;99.90;;;;;;5064894;28;20480;-76
2021/05/19 13:10:28;;;;;;;0.40;0.30;;;12.80;99.90;;;;;;5063089;28;20395;-73
2021/05/19 13:13:08;;;;;;;0.40;0.20;;;12.90;99.90;;;;;;5066507;28;20466;-74
2021/05/19 13:15:39;;;;;;;0.40;0.20;;;13.30;98.40;;;;;;5065685;28;20395;-73
2021/05/19 13:18:15;;;;;;;0.40;0.20;;;13.30;98.30;;;;;;5061700;28;20410;-73